Time;durP1;ratioP1;P1;durP2;ratioP2;P2;SDS_P1;SDS_P2;PMS_P1;PMS_P2;Temp;Humidity;BMP_temperature;BMP_pressure;BME280_temperature;BME280_humidity;BME280_pressure;Samples;Min_cycle;Max_cycle;Signal;HPM_P1;HPM_P2
2021/06/01 00:00:33;;;;;;;1.10;0.80;;;;;;;8.38;72.90;99734.14;1693370;83;21005;-53
2021/06/01 00:02:59;;;;;;;1.93;0.87;;;;;;;8.34;72.78;99733.38;1689184;83;21523;-52
2021/06/01 00:05:25;;;;;;;2.37;0.80;;;;;;;8.29;72.82;99736.69;1687982;83;21401;-53
2021/06/01 00:07:52;;;;;;;6.00;1.00;;;;;;;8.25;72.82;99735.05;1693253;82;21474;-53
2021/06/01 00:10:18;;;;;;;3.07;0.70;;;;;;;8.20;72.78;99738.84;1692185;82;21100;-53
2021/06/01 00:12:45;;;;;;;3.80;0.60;;;;;;;8.15;72.83;99740.38;1699842;82;21436;-53
2021/06/01 00:15:11;;;;;;;1.30;0.60;;;;;;;8.12;72.88;99744.51;1692254;82;21524;-53
2021/06/01 00:17:38;;;;;;;0.97;0.50;;;;;;;8.10;72.72;99742.80;1692948;82;21072;-53
2021/06/01 00:20:06;;;;;;;1.40;0.60;;;;;;;8.07;72.63;99742.48;1703998;82;21174;-53
2021/06/01 00:22:33;;;;;;;1.87;0.60;;;;;;;8.03;72.73;99738.16;1703216;82;21083;-53
2021/06/01 00:24:59;;;;;;;3.40;0.60;;;;;;;8.00;72.86;99736.92;1698868;82;21119;-52
2021/06/01 00:27:25;;;;;;;4.50;0.83;;;;;;;7.96;72.76;99744.22;1702068;82;21145;-53
2021/06/01 00:29:52;;;;;;;3.00;0.80;;;;;;;7.93;72.66;99742.98;1700109;82;21139;-53
2021/06/01 00:32:18;;;;;;;2.50;0.70;;;;;;;7.87;72.73;99733.84;1703689;82;21672;-53
2021/06/01 00:34:45;;;;;;;1.10;0.60;;;;;;;7.85;72.77;99744.20;1701674;82;20980;-52
2021/06/01 00:37:11;;;;;;;1.43;0.60;;;;;;;7.81;72.72;99737.23;1699857;82;21557;-52
2021/06/01 00:39:37;;;;;;;3.23;0.60;;;;;;;7.78;72.76;99738.67;1703697;82;21915;-52
2021/06/01 00:42:05;;;;;;;0.90;0.50;;;;;;;7.76;72.78;99739.18;1701136;82;21099;-53
2021/06/01 00:44:31;;;;;;;4.00;0.57;;;;;;;7.72;72.79;99746.94;1701721;82;21869;-53
2021/06/01 00:46:58;;;;;;;9.87;1.07;;;;;;;7.68;72.80;99738.59;1701450;82;21148;-52
2021/06/01 00:49:25;;;;;;;1.27;0.60;;;;;;;7.69;72.85;99743.02;1701046;82;21071;-52
2021/06/01 00:51:52;;;;;;;3.03;0.70;;;;;;;7.67;72.73;99742.20;1700758;82;21005;-53
2021/06/01 00:54:19;;;;;;;5.13;0.50;;;;;;;7.63;72.76;99733.42;1702775;82;20959;-52
2021/06/01 00:56:45;;;;;;;1.20;0.70;;;;;;;7.60;72.83;99734.39;1702805;82;21099;-52
2021/06/01 00:59:14;;;;;;;1.57;0.60;;;;;;;7.59;72.88;99740.67;1700387;82;21142;-52
2021/06/01 01:01:41;;;;;;;3.60;0.90;;;;;;;7.60;72.89;99742.89;1704042;82;20944;-53
2021/06/01 01:04:07;;;;;;;0.80;0.60;;;;;;;7.56;72.75;99742.61;1699279;82;21955;-53
2021/06/01 01:06:55;;;;;;;3.10;0.70;;;;;;;7.51;72.65;99746.78;1702823;82;21151;-52
2021/06/01 01:09:19;;;;;;;2.23;0.60;;;;;;;7.45;72.60;99742.98;1711049;82;21593;-53
2021/06/01 01:12:01;;;;;;;0.50;0.50;;;;;;;7.41;72.87;99741.33;1710054;82;21067;-52
2021/06/01 01:14:36;;;;;;;3.30;0.60;;;;;;;7.38;72.90;99739.25;1710979;82;20996;-52
2021/06/01 01:17:08;;;;;;;2.77;0.53;;;;;;;7.35;72.95;99736.66;1707473;82;21146;-52
2021/06/01 01:19:46;;;;;;;3.60;0.60;;;;;;;7.32;72.96;99728.73;1704234;82;21526;-52
2021/06/01 01:22:14;;;;;;;2.00;0.67;;;;;;;7.27;73.03;99730.25;1707815;82;21132;-56
2021/06/01 01:24:46;;;;;;;1.33;0.60;;;;;;;7.26;73.04;99736.98;1708319;82;21111;-55
2021/06/01 01:27:54;;;;;;;2.50;0.70;;;;;;;7.23;73.15;99736.16;1709021;82;21888;-56
2021/06/01 01:30:20;;;;;;;7.53;0.70;;;;;;;7.23;73.08;99742.47;1709002;82;21139;-53
2021/06/01 01:33:02;;;;;;;2.60;0.50;;;;;;;7.15;73.03;99740.03;1706555;82;21123;-53
2021/06/01 01:35:31;;;;;;;4.77;0.60;;;;;;;7.10;73.01;99740.66;1708092;82;21891;-54
2021/06/01 01:37:59;;;;;;;3.70;0.50;;;;;;;7.07;73.14;99744.77;1709218;82;21071;-56
2021/06/01 01:40:30;;;;;;;3.53;0.50;;;;;;;7.05;73.17;99750.67;1679862;82;21103;-53
2021/06/01 01:43:02;;;;;;;5.70;0.40;;;;;;;7.05;73.13;99746.19;1710810;82;21686;-55
2021/06/01 01:45:36;;;;;;;1.87;0.60;;;;;;;7.05;73.18;99741.30;1707844;82;21132;-56
2021/06/01 01:50:51;;;;;;;2.93;0.70;;;;;;;7.04;73.12;99740.88;1709062;82;21111;-55
2021/06/01 01:53:18;;;;;;;1.80;0.60;;;;;;;7.00;73.20;99748.59;1661779;82;21143;-52
2021/06/01 01:55:47;;;;;;;2.53;0.63;;;;;;;6.97;73.26;99748.25;1707812;82;21692;-52
2021/06/01 01:58:14;;;;;;;2.57;0.80;;;;;;;6.95;73.23;99746.08;1709322;82;21064;-52
2021/06/01 02:00:41;;;;;;;2.53;0.53;;;;;;;6.93;73.16;99751.06;1683598;82;21365;-54
2021/06/01 02:03:08;;;;;;;1.10;0.60;;;;;;;6.91;73.23;99749.77;1711714;82;20998;-54
2021/06/01 02:05:37;;;;;;;2.57;0.50;;;;;;;6.93;73.30;99753.73;1710804;82;21489;-52
2021/06/01 02:08:05;;;;;;;3.73;0.50;;;;;;;6.92;73.17;99747.97;1700621;82;21143;-54
2021/06/01 02:10:31;;;;;;;5.57;0.50;;;;;;;6.89;73.21;99744.92;1653822;82;21144;-54
2021/06/01 02:12:58;;;;;;;1.27;0.60;;;;;;;6.88;73.17;99746.34;1694862;82;21131;-54
2021/06/01 02:15:24;;;;;;;4.30;0.60;;;;;;;6.87;73.15;99740.58;1694836;82;21144;-53
2021/06/01 02:17:51;;;;;;;2.00;0.70;;;;;;;6.86;73.15;99741.50;1695277;82;21693;-52
2021/06/01 02:24:23;;;;;;;1.83;0.70;;;;;;;6.81;73.37;99744.30;1828462;75;21468;-54
2021/06/01 02:27:17;;;;;;;2.23;0.60;;;;;;;6.79;73.36;99741.71;1835607;75;22240;-52
2021/06/01 02:30:04;;;;;;;5.20;0.70;;;;;;;6.77;73.42;99745.35;1831014;75;20984;-53
2021/06/01 02:32:50;;;;;;;1.20;0.50;;;;;;;6.73;73.50;99752.59;1828511;75;21086;-53
2021/06/01 02:35:23;;;;;;;3.43;0.60;;;;;;;6.70;73.67;99747.82;1834254;75;21576;-54
2021/06/01 02:37:50;;;;;;;4.10;0.50;;;;;;;6.67;73.94;99751.46;1833773;75;20915;-53
2021/06/01 02:40:19;;;;;;;1.23;0.60;;;;;;;6.69;74.22;99749.63;1777425;78;21330;-54
2021/06/01 02:42:46;;;;;;;1.90;0.50;;;;;;;6.73;74.34;99756.60;1817204;76;21443;-54
2021/06/01 02:45:15;;;;;;;2.43;0.60;;;;;;;6.76;74.42;99754.30;1825358;76;20932;-52
2021/06/01 02:47:41;;;;;;;0.90;0.60;;;;;;;6.78;74.62;99752.45;1827742;76;20971;-54
2021/06/01 02:50:14;;;;;;;2.63;0.60;;;;;;;6.83;74.76;99756.72;1825831;76;20918;-55
2021/06/01 02:52:43;;;;;;;2.42;0.80;;;;;;;6.84;74.86;99751.78;1823265;76;20968;-54
2021/06/01 02:55:11;;;;;;;2.73;0.90;;;;;;;6.84;74.98;99748.23;1825956;76;20904;-54
2021/06/01 02:57:39;;;;;;;2.87;0.80;;;;;;;6.87;75.18;99745.47;1825208;76;21051;-55
2021/06/01 03:00:08;;;;;;;0.70;0.40;;;;;;;6.92;75.44;99754.66;1824798;76;21758;-53
2021/06/01 03:02:34;;;;;;;2.20;0.50;;;;;;;6.97;75.64;99752.27;1823492;76;21443;-53
2021/06/01 03:05:01;;;;;;;5.57;0.70;;;;;;;7.02;75.81;99750.30;1822699;76;22106;-53
2021/06/01 03:07:27;;;;;;;0.80;0.50;;;;;;;7.10;76.05;99760.28;1771446;79;21060;-54
2021/06/01 03:09:54;;;;;;;1.40;0.60;;;;;;;7.20;76.22;99751.47;1767152;79;21103;-53
2021/06/01 03:12:37;;;;;;;8.13;0.80;;;;;;;7.29;76.40;99754.30;1766133;79;21138;-52
2021/06/01 03:14:49;;;;;;;2.33;0.60;;;;;;;7.34;76.66;99751.86;1764663;79;21592;-53
2021/06/01 03:17:16;;;;;;;8.23;0.70;;;;;;;7.42;76.87;99751.58;1766245;79;21645;-52
2021/06/01 03:19:42;;;;;;;1.00;0.70;;;;;;;7.49;77.09;99747.29;1788359;78;21513;-54
2021/06/01 03:22:09;;;;;;;2.27;0.63;;;;;;;7.57;77.22;99752.41;1788878;78;21122;-53
2021/06/01 03:24:35;;;;;;;1.70;0.80;;;;;;;7.67;77.78;99750.23;1787512;78;21051;-53
2021/06/01 03:27:05;;;;;;;7.33;0.73;;;;;;;7.77;78.11;99747.17;1791799;78;21567;-54
2021/06/01 03:29:31;;;;;;;1.00;0.70;;;;;;;7.92;78.49;99748.39;1787991;78;21110;-53
2021/06/01 03:31:57;;;;;;;3.87;1.73;;;;;;;8.05;78.37;99755.06;1787183;78;21117;-53
2021/06/01 03:34:24;;;;;;;2.17;0.70;;;;;;;8.20;78.35;99744.20;1787384;78;21087;-53
2021/06/01 03:36:51;;;;;;;1.73;0.70;;;;;;;8.33;78.28;99746.41;1763541;79;21144;-54
2021/06/01 03:39:20;;;;;;;2.97;0.80;;;;;;;8.48;78.15;99744.92;1757595;80;21038;-52
2021/06/01 03:41:48;;;;;;;1.80;0.87;;;;;;;8.63;77.97;99747.45;1757272;80;21562;-55
2021/06/01 03:44:15;;;;;;;2.40;0.70;;;;;;;8.73;77.48;99742.12;1765989;78;21497;-52
2021/06/01 03:46:43;;;;;;;1.60;0.60;;;;;;;8.84;77.04;99737.66;1786367;78;20964;-54
2021/06/01 03:49:09;;;;;;;0.80;0.60;;;;;;;8.96;76.60;99738.00;1765415;79;21118;-53
2021/06/01 03:51:36;;;;;;;1.47;0.60;;;;;;;9.06;76.45;99735.81;1764415;79;21095;-53
2021/06/01 03:54:03;;;;;;;3.90;1.00;;;;;;;9.18;75.98;99729.94;1766185;79;21094;-53
2021/06/01 03:56:30;;;;;;;3.37;0.80;;;;;;;9.29;75.60;99731.66;1765827;79;21110;-52
2021/06/01 03:58:56;;;;;;;1.13;0.70;;;;;;;9.39;74.82;99731.67;1766359;79;21089;-52
2021/06/01 04:01:22;;;;;;;5.70;0.73;;;;;;;9.48;74.64;99727.71;1761040;79;21095;-54
2021/06/01 04:03:48;;;;;;;2.60;0.90;;;;;;;9.56;74.15;99727.37;1771737;78;21079;-54
2021/06/01 04:06:15;;;;;;;1.17;0.70;;;;;;;9.60;73.34;99723.15;1761804;80;21776;-54
2021/06/01 04:08:41;;;;;;;6.00;0.57;;;;;;;9.64;72.09;99717.14;1769172;79;21763;-55
2021/06/01 04:11:07;;;;;;;8.60;0.70;;;;;;;9.71;72.37;99718.61;1756825;80;21550;-54
2021/06/01 04:13:34;;;;;;;1.70;0.70;;;;;;;9.79;72.06;99722.70;1765125;79;21164;-52
2021/06/01 04:16:02;;;;;;;2.60;0.77;;;;;;;9.90;71.36;99724.03;1765886;79;21153;-54
2021/06/01 04:18:30;;;;;;;3.80;0.70;;;;;;;9.95;70.95;99732.78;1765722;79;21035;-52
2021/06/01 04:20:56;;;;;;;1.70;0.63;;;;;;;10.01;70.27;99728.45;1757788;79;21381;-56
2021/06/01 04:23:22;;;;;;;3.00;0.70;;;;;;;10.06;69.19;99723.72;1754033;80;21142;-53
2021/06/01 04:25:48;;;;;;;3.03;0.80;;;;;;;10.08;69.54;99718.68;1771234;79;21501;-55
2021/06/01 04:28:15;;;;;;;1.00;0.70;;;;;;;10.11;69.08;99727.96;1743055;81;21497;-54
2021/06/01 04:30:44;;;;;;;1.63;0.70;;;;;;;10.16;69.10;99724.57;1773581;78;21067;-55
2021/06/01 04:35:41;;;;;;;1.50;0.70;;;;;;;10.34;68.59;99714.79;1797863;77;21898;-54
2021/06/01 04:38:07;;;;;;;0.82;0.60;;;;;;;10.38;68.13;99723.10;1765203;78;21016;-55
2021/06/01 04:40:34;;;;;;;2.20;0.70;;;;;;;10.46;68.17;99718.22;1773832;78;21055;-55
2021/06/01 04:43:01;;;;;;;1.87;0.90;;;;;;;10.56;67.47;99722.22;1759010;79;21032;-56
2021/06/01 04:45:27;;;;;;;3.05;0.70;;;;;;;10.63;66.96;99714.23;1761676;80;21032;-56
2021/06/01 04:47:54;;;;;;;1.72;0.93;;;;;;;10.70;65.49;99720.69;1758032;80;21068;-54
2021/06/01 04:50:20;;;;;;;3.75;0.70;;;;;;;10.74;65.31;99716.88;1753163;80;21492;-56
2021/06/01 04:52:47;;;;;;;6.15;1.27;;;;;;;10.77;65.61;99711.36;1754012;80;21458;-53
2021/06/01 04:55:14;;;;;;;1.52;0.57;;;;;;;10.83;64.88;99705.66;1760813;80;21436;-54
2021/06/01 04:57:41;;;;;;;3.12;0.50;;;;;;;10.87;65.13;99704.09;1761600;80;20986;-54
2021/06/01 05:00:08;;;;;;;1.25;0.60;;;;;;;10.95;64.66;99706.41;1705324;82;21207;-55
2021/06/01 05:02:35;;;;;;;0.95;0.60;;;;;;;11.02;63.99;99707.83;1724294;81;21049;-56
2021/06/01 05:05:02;;;;;;;0.75;0.60;;;;;;;11.11;63.88;99700.62;1721671;81;21171;-55
2021/06/01 05:07:28;;;;;;;3.12;0.70;;;;;;;11.20;62.26;99706.89;1725284;81;20950;-55
2021/06/01 05:10:00;;;;;;;3.02;0.60;;;;;;;11.30;62.37;99709.98;1721139;81;21120;-52
2021/06/01 05:12:25;;;;;;;2.58;0.50;;;;;;;11.37;62.44;99709.59;1727448;80;21494;-56
2021/06/01 05:14:51;;;;;;;6.00;0.70;;;;;;;11.48;62.47;99709.51;1723988;81;21105;-53
2021/06/01 05:17:19;;;;;;;2.37;0.60;;;;;;;11.58;62.41;99701.30;1698321;82;21235;-56
2021/06/01 05:19:46;;;;;;;2.10;0.60;;;;;;;11.65;60.30;99702.75;1693374;83;21183;-55
2021/06/01 05:22:13;;;;;;;1.82;0.60;;;;;;;11.70;60.70;99700.19;1703759;82;21075;-55
2021/06/01 05:24:39;;;;;;;1.98;0.95;;;;;;;11.75;60.73;99694.09;1708827;82;21097;-56
2021/06/01 05:27:07;;;;;;;2.00;0.50;;;;;;;11.83;60.05;99696.37;1697755;82;21068;-54
2021/06/01 05:29:37;;;;;;;1.90;0.50;;;;;;;11.90;59.50;99694.23;1711316;82;21067;-55
2021/06/01 05:34:30;;;;;;;2.80;0.80;;;;;;;11.96;58.59;99695.25;1641572;83;20964;-55
2021/06/01 05:36:57;;;;;;;0.95;0.40;;;;;;;12.00;59.30;99693.63;1686657;83;21140;-55
2021/06/01 05:39:23;;;;;;;0.60;0.40;;;;;;;12.06;57.86;99697.36;1743005;80;21069;-56
2021/06/01 05:41:50;;;;;;;0.60;0.40;;;;;;;12.11;56.92;99702.02;1745647;80;22236;-55
2021/06/01 05:44:17;;;;;;;0.70;0.40;;;;;;;12.16;57.44;99699.55;1752119;80;20969;-55
2021/06/01 05:46:43;;;;;;;2.87;0.60;;;;;;;12.21;56.95;99688.88;1748201;80;21081;-57
2021/06/01 05:49:09;;;;;;;1.15;0.40;;;;;;;12.26;57.30;99696.71;1743591;80;21104;-54
2021/06/01 05:51:37;;;;;;;1.35;0.40;;;;;;;12.33;57.78;99704.88;1724253;81;21060;-54
2021/06/01 05:54:04;;;;;;;2.12;0.45;;;;;;;12.41;56.98;99687.30;1745954;80;21722;-54
2021/06/01 05:56:31;;;;;;;2.40;0.40;;;;;;;12.47;56.43;99695.03;1746879;80;21113;-55
2021/06/01 05:58:58;;;;;;;1.15;0.40;;;;;;;12.54;57.22;99692.85;1745155;80;21103;-56
2021/06/01 06:01:24;;;;;;;5.50;0.68;;;;;;;12.60;56.28;99699.72;1747490;80;21086;-56
2021/06/01 06:03:50;;;;;;;0.72;0.30;;;;;;;12.61;55.29;99692.02;1742253;80;21099;-55
2021/06/01 06:06:17;;;;;;;0.47;0.30;;;;;;;12.62;55.36;99693.28;1747555;80;21678;-55
2021/06/01 06:08:43;;;;;;;2.45;0.50;;;;;;;12.64;55.46;99691.38;1740125;80;21150;-55
2021/06/01 06:11:10;;;;;;;0.95;0.33;;;;;;;12.70;55.51;99689.66;1747688;80;21366;-56
2021/06/01 06:13:36;;;;;;;0.30;0.30;;;;;;;12.76;55.22;99691.99;1695179;82;21048;-55
2021/06/01 06:16:04;;;;;;;2.12;0.30;;;;;;;12.85;55.91;99701.39;1720046;82;21503;-55
2021/06/01 06:18:38;;;;;;;2.10;0.30;;;;;;;12.94;54.58;99693.23;1713652;81;21060;-55
2021/06/01 06:21:06;;;;;;;5.62;0.40;;;;;;;13.04;55.13;99693.95;1695043;82;21647;-56
2021/06/01 06:23:35;;;;;;;1.17;0.40;;;;;;;13.19;55.39;99703.88;1751197;79;21077;-54
2021/06/01 06:26:02;;;;;;;1.47;0.55;;;;;;;13.33;55.85;99700.38;1749981;80;21114;-56
2021/06/01 06:28:30;;;;;;;1.95;0.30;;;;;;;13.43;55.59;99692.10;1751550;80;21107;-56
2021/06/01 06:30:56;;;;;;;0.60;0.40;;;;;;;13.49;55.93;99686.31;1747934;80;21072;-55
2021/06/01 06:33:23;;;;;;;1.42;0.40;;;;;;;13.56;55.71;99690.38;1745689;80;21500;-55
2021/06/01 06:35:50;;;;;;;1.90;0.45;;;;;;;13.57;55.13;99689.41;1753708;80;21563;-57
2021/06/01 06:38:17;;;;;;;1.55;0.47;;;;;;;13.57;55.28;99688.55;1756271;80;21110;-54
2021/06/01 06:40:49;;;;;;;6.58;0.78;;;;;;;13.53;54.17;99693.73;1760293;80;22078;-56
2021/06/01 06:43:12;;;;;;;2.40;0.37;;;;;;;13.48;54.39;99695.86;1753339;80;21078;-55
2021/06/01 06:45:39;;;;;;;1.07;0.30;;;;;;;13.45;54.36;99690.15;1754422;80;21110;-57
2021/06/01 06:48:09;;;;;;;2.37;0.40;;;;;;;13.37;53.69;99682.98;1755497;80;21112;-54
2021/06/01 06:50:37;;;;;;;1.37;0.50;;;;;;;13.32;53.58;99685.11;1755631;80;21020;-56
2021/06/01 06:53:04;;;;;;;3.12;0.60;;;;;;;13.30;53.96;99687.51;1751995;80;21048;-56
2021/06/01 06:55:30;;;;;;;1.12;0.40;;;;;;;13.31;54.08;99685.20;1757753;80;21725;-57
2021/06/01 06:57:57;;;;;;;2.42;0.30;;;;;;;13.34;53.42;99688.60;1759238;80;21051;-56
2021/06/01 07:00:24;;;;;;;2.20;0.30;;;;;;;13.38;53.21;99686.08;1751058;80;21554;-55
2021/06/01 07:02:50;;;;;;;4.83;0.30;;;;;;;13.38;52.85;99686.08;1755777;80;22337;-56
2021/06/01 07:05:19;;;;;;;7.03;0.50;;;;;;;13.37;52.84;99685.69;1759135;80;21598;-53
2021/06/01 07:07:53;;;;;;;2.10;0.40;;;;;;;13.37;52.56;99695.63;1758711;80;21839;-57
2021/06/01 07:10:20;;;;;;;0.80;0.40;;;;;;;13.34;52.64;99687.25;1757158;80;21065;-55
2021/06/01 07:12:46;;;;;;;1.50;0.40;;;;;;;13.36;52.65;99689.35;1755464;80;21072;-55
2021/06/01 07:15:28;;;;;;;4.97;0.37;;;;;;;13.41;53.28;99689.97;1758018;79;21096;-55
2021/06/01 07:17:56;;;;;;;1.47;0.40;;;;;;;13.51;52.91;99684.39;1695602;82;21143;-55
2021/06/01 07:20:25;;;;;;;1.55;0.40;;;;;;;13.62;52.83;99686.41;1754542;80;21533;-55
2021/06/01 07:22:51;;;;;;;1.00;0.30;;;;;;;13.78;53.37;99696.66;1748386;80;21057;-56
2021/06/01 07:25:18;;;;;;;1.50;0.30;;;;;;;13.89;51.96;99688.76;1751890;80;21444;-55
2021/06/01 07:27:45;;;;;;;4.75;0.80;;;;;;;13.97;52.11;99696.39;1750824;80;21119;-54
2021/06/01 07:30:14;;;;;;;6.50;0.30;;;;;;;14.01;51.51;99692.06;1756076;80;21075;-56
2021/06/01 07:32:40;;;;;;;2.35;0.40;;;;;;;14.01;50.40;99693.41;1758580;80;21298;-54
2021/06/01 07:35:08;;;;;;;2.83;0.35;;;;;;;13.98;50.43;99692.23;1756713;80;21044;-55
2021/06/01 07:37:34;;;;;;;1.45;0.30;;;;;;;14.00;51.01;99686.73;1746487;80;21088;-55
2021/06/01 07:40:01;;;;;;;2.17;0.33;;;;;;;13.97;50.40;99682.86;1745906;80;21139;-55
2021/06/01 07:42:28;;;;;;;0.70;0.30;;;;;;;14.01;49.86;99692.54;1710118;82;21158;-56
2021/06/01 07:44:54;;;;;;;0.40;0.20;;;;;;;14.03;49.75;99693.80;1747440;80;21120;-57
2021/06/01 07:47:20;;;;;;;0.78;0.30;;;;;;;14.06;47.91;99694.45;1667592;82;21133;-57
2021/06/01 07:49:47;;;;;;;1.60;0.30;;;;;;;14.06;49.10;99697.16;1743685;80;21190;-53
2021/06/01 07:52:13;;;;;;;1.00;0.30;;;;;;;14.03;48.05;99693.32;1746334;80;21104;-56
2021/06/01 07:54:39;;;;;;;0.90;0.30;;;;;;;14.06;48.96;99702.58;1746153;80;21056;-57
2021/06/01 07:57:06;;;;;;;2.42;0.60;;;;;;;14.13;48.18;99686.81;1743850;80;21677;-54
2021/06/01 07:59:32;;;;;;;0.40;0.28;;;;;;;14.21;49.11;99689.41;1746325;80;21100;-56
2021/06/01 08:01:59;;;;;;;0.98;0.30;;;;;;;14.36;49.82;99683.52;1742794;80;21614;-56
2021/06/01 08:04:25;;;;;;;3.92;0.30;;;;;;;14.53;50.01;99686.52;1747570;80;21581;-56
2021/06/01 08:06:52;;;;;;;0.42;0.30;;;;;;;14.68;49.72;99671.95;1748014;80;20989;-54
2021/06/01 08:09:18;;;;;;;2.47;0.30;;;;;;;14.80;49.74;99671.13;1746733;79;21118;-56
2021/06/01 08:11:45;;;;;;;1.10;0.30;;;;;;;14.82;49.13;99673.25;1686266;82;21116;-56
2021/06/01 08:14:13;;;;;;;0.50;0.30;;;;;;;14.80;48.62;99672.48;1748692;80;20981;-56
2021/06/01 08:16:42;;;;;;;1.85;0.40;;;;;;;14.75;49.01;99673.28;1746202;80;21556;-57
2021/06/01 08:19:18;;;;;;;0.55;0.30;;;;;;;14.67;49.60;99672.44;1691401;82;20907;-55
2021/06/01 08:24:17;;;;;;;1.25;0.30;;;;;;;14.66;49.35;99668.47;1748081;80;20948;-56
2021/06/01 08:26:44;;;;;;;3.67;0.47;;;;;;;14.60;48.67;99669.76;1749356;80;20931;-56
2021/06/01 08:29:12;;;;;;;2.25;0.35;;;;;;;14.49;48.54;99670.06;1748857;80;20949;-54
2021/06/01 08:31:38;;;;;;;0.60;0.20;;;;;;;14.43;48.94;99666.41;1691311;82;21460;-56
2021/06/01 08:34:05;;;;;;;4.60;0.33;;;;;;;14.43;49.83;99679.47;1746661;80;21128;-56
2021/06/01 08:36:31;;;;;;;1.47;0.25;;;;;;;14.47;48.57;99667.94;1747848;80;21114;-56
2021/06/01 08:38:58;;;;;;;0.82;0.30;;;;;;;14.49;47.48;99657.87;1746024;80;21156;-57
2021/06/01 08:41:25;;;;;;;0.80;0.30;;;;;;;14.46;48.06;99660.30;1746443;80;21207;-56
2021/06/01 08:43:52;;;;;;;0.40;0.30;;;;;;;14.48;48.15;99666.97;1747898;80;21109;-55
2021/06/01 08:46:23;;;;;;;0.45;0.28;;;;;;;14.48;47.45;99661.55;1748256;80;21170;-55
2021/06/01 08:48:52;;;;;;;0.82;0.28;;;;;;;14.55;47.74;99669.66;1748623;80;21384;-56
2021/06/01 08:51:20;;;;;;;0.95;0.35;;;;;;;14.58;48.62;99666.27;1745699;80;21613;-57
2021/06/01 08:53:51;;;;;;;0.60;0.30;;;;;;;14.61;48.99;99661.15;1752651;80;20938;-58
2021/06/01 08:56:17;;;;;;;1.25;0.20;;;;;;;14.61;48.04;99662.02;1746893;80;21112;-56
2021/06/01 08:58:49;;;;;;;0.40;0.30;;;;;;;14.58;48.40;99672.17;1747944;80;21515;-57
2021/06/01 09:01:18;;;;;;;3.72;0.30;;;;;;;14.50;47.11;99664.55;1743151;80;21108;-57
2021/06/01 09:03:48;;;;;;;4.78;0.45;;;;;;;14.41;47.97;99661.58;1748704;80;21553;-57
2021/06/01 09:06:23;;;;;;;4.42;0.37;;;;;;;14.35;48.91;99665.05;1719925;80;20921;-55
2021/06/01 09:14:27;;;;;;;1.32;0.20;;;;;;;14.41;49.43;99665.64;1745260;80;21099;-56
2021/06/01 09:22:37;;;;;;;4.92;0.40;;;;;;;14.49;48.15;99657.40;1748662;80;21173;-58
2021/06/01 09:25:15;;;;;;;0.40;0.30;;;;;;;14.50;48.09;99660.49;1746749;80;21088;-58
2021/06/01 09:27:50;;;;;;;2.12;0.50;;;;;;;14.51;46.88;99660.01;1750228;80;21483;-56
2021/06/01 09:30:44;;;;;;;1.27;0.30;;;;;;;14.51;46.72;99662.72;1748471;80;21095;-53
2021/06/01 09:33:22;;;;;;;0.50;0.25;;;;;;;14.50;46.94;99659.63;1672413;83;21144;-54
2021/06/01 09:36:00;;;;;;;1.62;0.20;;;;;;;14.60;47.63;99659.41;1747432;80;21091;-55
2021/06/01 09:38:35;;;;;;;0.50;0.20;;;;;;;14.67;46.05;99652.61;1748005;80;21555;-57
2021/06/01 09:41:26;;;;;;;0.85;0.20;;;;;;;14.77;45.89;99648.31;1752380;80;21500;-55
2021/06/01 09:44:06;;;;;;;0.60;0.28;;;;;;;14.88;45.67;99646.25;1676423;83;21085;-56
2021/06/01 09:46:40;;;;;;;1.45;0.20;;;;;;;14.97;44.98;99638.85;1672892;83;21621;-55
2021/06/01 09:49:18;;;;;;;0.57;0.30;;;;;;;15.02;44.71;99641.63;1698642;83;21763;-57
2021/06/01 09:51:57;;;;;;;2.47;0.20;;;;;;;15.00;44.19;99653.53;1700830;83;21143;-56
2021/06/01 09:54:50;;;;;;;7.65;0.20;;;;;;;14.99;44.65;99651.30;1676673;83;21141;-58
2021/06/01 09:57:22;;;;;;;3.33;0.30;;;;;;;14.98;43.81;99649.56;1744635;80;21061;-58
2021/06/01 10:00:17;;;;;;;1.00;0.75;;;;;;;15.00;44.01;99646.75;1748791;80;21307;-54
2021/06/01 10:02:51;;;;;;;3.05;0.20;;;;;;;15.01;44.47;99665.63;1690245;82;21000;-57
2021/06/01 10:05:23;;;;;;;3.77;0.20;;;;;;;15.00;43.79;99653.05;1683626;84;21822;-55
2021/06/01 10:07:51;;;;;;;1.42;0.20;;;;;;;15.06;43.55;99652.63;1694275;80;21102;-54
2021/06/01 10:10:30;;;;;;;1.55;0.20;;;;;;;15.15;44.33;99641.63;1744222;80;21121;-54
2021/06/01 10:13:03;;;;;;;10.13;0.53;;;;;;;15.30;44.45;99632.95;1749177;80;20997;-55
2021/06/01 10:15:31;;;;;;;1.25;0.37;;;;;;;15.44;44.40;99641.86;1749088;80;21139;-57
2021/06/01 10:17:58;;;;;;;4.30;0.30;;;;;;;15.54;44.43;99628.55;1672998;83;21796;-55
2021/06/01 10:20:27;;;;;;;1.15;0.30;;;;;;;15.52;44.18;99646.73;1750089;80;21115;-56
2021/06/01 10:22:55;;;;;;;0.35;0.30;;;;;;;15.52;44.18;99646.73;1749372;80;20987;-56
2021/06/01 10:25:24;;;;;;;0.93;0.40;;;;;;;15.50;44.34;99647.33;1747003;80;21121;-55
2021/06/01 10:27:57;;;;;;;2.60;0.40;;;;;;;15.48;43.32;99643.87;1750177;80;21701;-57
2021/06/01 10:30:24;;;;;;;1.70;0.30;;;;;;;15.55;44.17;99638.44;1744432;80;22685;-57
2021/06/01 10:33:05;;;;;;;0.88;0.30;;;;;;;15.59;42.98;99634.51;1674045;83;21001;-56
2021/06/01 10:35:40;;;;;;;0.33;0.28;;;;;;;15.62;42.39;99626.16;1716684;81;21112;-55
2021/06/01 10:50:05;;;;;;;0.40;0.20;;;;;;;15.65;41.45;99631.35;1734999;80;20925;-55
2021/06/01 10:52:24;;;;;;;3.90;0.20;;;;;;;15.60;42.39;99624.04;1727695;81;21092;-57
2021/06/01 10:54:59;;;;;;;1.02;0.33;;;;;;;15.57;42.57;99625.60;1726071;81;21151;-54
2021/06/01 10:57:56;;;;;;;3.98;0.50;;;;;;;15.56;41.13;99630.67;1731740;81;21691;-54
2021/06/01 11:03:12;;;;;;;2.87;0.45;;;;;;;15.59;40.80;99624.14;1757200;80;20897;-57
2021/06/01 11:06:03;;;;;;;2.33;0.50;;;;;;;15.52;41.62;99621.84;1764545;80;20961;-56
2021/06/01 11:08:36;;;;;;;2.22;0.57;;;;;;;15.52;41.30;99627.75;1768978;80;21413;-54
2021/06/01 11:11:25;;;;;;;0.60;0.40;;;;;;;15.49;41.85;99632.02;1768409;80;21016;-55
2021/06/01 11:13:58;;;;;;;0.47;0.20;;;;;;;15.50;41.89;99625.63;1769452;80;21486;-56
2021/06/01 11:16:24;;;;;;;2.98;0.30;;;;;;;15.57;40.76;99630.19;1766313;80;21130;-57
2021/06/01 11:19:01;;;;;;;0.70;0.30;;;;;;;15.59;41.04;99616.88;1769871;80;20983;-54
2021/06/01 11:21:37;;;;;;;2.15;0.30;;;;;;;15.62;41.72;99622.09;1767519;80;20901;-56
2021/06/01 11:35:42;;;;;;;4.78;0.30;;;;;;;15.78;41.11;99595.59;1739795;80;21061;-54
2021/06/01 11:38:19;;;;;;;0.60;0.20;;;;;;;15.83;41.44;99604.27;1759306;78;21120;-56
2021/06/01 11:41:00;;;;;;;2.85;0.30;;;;;;;15.96;42.00;99608.81;1762938;78;21482;-56
2021/06/01 11:43:22;;;;;;;2.92;0.30;;;;;;;16.06;40.65;99611.25;1739344;80;21361;-57
2021/06/01 11:46:07;;;;;;;0.50;0.30;;;;;;;16.06;40.65;99611.25;1766598;78;21525;-56
2021/06/01 11:51:27;;;;;;;2.83;0.30;;;;;;;16.00;40.56;99603.04;1742201;80;20994;-55
2021/06/01 11:54:11;;;;;;;2.52;0.30;;;;;;;15.93;41.75;99612.61;1738591;80;21016;-55
2021/06/01 11:56:59;;;;;;;0.45;0.20;;;;;;;15.87;41.37;99611.70;1734727;80;21154;-57
2021/06/01 12:02:15;;;;;;;1.77;0.20;;;;;;;15.66;41.44;99613.23;1758567;78;21637;-53
2021/06/01 12:05:01;;;;;;;0.20;0.20;;;;;;;15.66;41.44;99613.23;1761047;78;21045;-55
2021/06/01 12:13:43;;;;;;;2.30;0.45;;;;;;;15.69;41.57;99608.95;1775101;78;21076;-55
2021/06/01 12:18:41;;;;;;;4.28;0.40;;;;;;;15.75;40.89;99617.52;1768919;78;21023;-56
2021/06/01 12:21:08;;;;;;;2.25;0.30;;;;;;;15.76;41.54;99621.09;1772211;79;21137;-56
2021/06/01 12:26:19;;;;;;;0.70;0.27;;;;;;;15.77;41.84;99618.28;1825229;76;22626;-57
2021/06/01 12:32:03;;;;;;;1.55;0.30;;;;;;;15.71;42.05;99609.23;1799006;77;21146;-56
2021/06/01 13:12:27;;;;;;;4.83;0.28;;;;;;;15.58;40.73;99601.56;1778876;79;21056;-57
2021/06/01 13:20:36;;;;;;;1.85;0.20;;;;;;;15.55;42.00;99605.01;1775078;79;21019;-55
2021/06/01 13:23:32;;;;;;;0.20;0.20;;;;;;;15.52;41.55;99612.83;1785167;79;21108;-56
2021/06/01 13:36:51;;;;;;;2.35;0.37;;;;;;;15.42;40.92;99600.41;1766791;79;21528;-56
2021/06/01 13:47:17;;;;;;;1.80;0.50;;;;;;;15.54;42.57;99599.20;1726461;81;21140;-55
2021/06/01 13:49:46;;;;;;;2.35;0.60;;;;;;;15.52;41.68;99604.20;1769653;79;22239;-54
2021/06/01 13:55:16;;;;;;;1.00;0.20;;;;;;;15.48;40.54;99604.03;1769552;79;21632;-57
2021/06/01 14:15:14;;;;;;;;;;;;;;;15.66;40.59;99606.45;1750093;80;21070;-54
2021/06/01 14:30:01;;;;;;;3.50;0.30;;;;;;;15.38;40.15;99621.08;1721394;81;21065;-56
2021/06/01 14:35:50;;;;;;;2.37;0.30;;;;;;;15.38;40.10;99619.73;1774253;79;21134;-56
2021/06/01 14:39:16;;;;;;;1.67;0.20;;;;;;;15.47;40.43;99617.23;1791976;78;23024;-53